sensor_id;sensor_type;location;lat;lon;timestamp;P1;durP1;ratioP1;P2;durP2;ratioP2
3726;SDS011;1879;45.876;12.300;2023-07-30T00:01:48;12.90;;;7.63;;
3726;SDS011;1879;45.876;12.300;2023-07-30T00:04:15;9.80;;;8.80;;
3726;SDS011;1879;45.876;12.300;2023-07-30T00:06:42;11.07;;;9.97;;
3726;SDS011;1879;45.876;12.300;2023-07-30T00:09:09;10.33;;;9.27;;
3726;SDS011;1879;45.876;12.300;2023-07-30T00:11:36;13.57;;;11.00;;
3726;SDS011;1879;45.876;12.300;2023-07-30T00:14:04;15.40;;;12.67;;
3726;SDS011;1879;45.876;12.300;2023-07-30T00:16:31;20.47;;;16.07;;
3726;SDS011;1879;45.876;12.300;2023-07-30T00:18:58;11.93;;;10.70;;
3726;SDS011;1879;45.876;12.300;2023-07-30T00:21:25;11.00;;;9.80;;
3726;SDS011;1879;45.876;12.300;2023-07-30T00:23:52;10.97;;;9.73;;
3726;SDS011;1879;45.876;12.300;2023-07-30T00:26:19;11.87;;;10.60;;
3726;SDS011;1879;45.876;12.300;2023-07-30T00:28:46;12.67;;;10.20;;
3726;SDS011;1879;45.876;12.300;2023-07-30T00:31:14;14.00;;;12.63;;
3726;SDS011;1879;45.876;12.300;2023-07-30T00:33:41;11.20;;;10.20;;
3726;SDS011;1879;45.876;12.300;2023-07-30T00:36:08;13.50;;;12.20;;
3726;SDS011;1879;45.876;12.300;2023-07-30T00:38:35;13.77;;;12.57;;
3726;SDS011;1879;45.876;12.300;2023-07-30T00:41:02;13.20;;;12.17;;
3726;SDS011;1879;45.876;12.300;2023-07-30T00:43:29;14.23;;;13.03;;
3726;SDS011;1879;45.876;12.300;2023-07-30T00:45:56;11.63;;;10.50;;
3726;SDS011;1879;45.876;12.300;2023-07-30T00:48:24;9.60;;;8.70;;
3726;SDS011;1879;45.876;12.300;2023-07-30T00:50:51;11.73;;;10.83;;
3726;SDS011;1879;45.876;12.300;2023-07-30T00:53:19;10.67;;;9.67;;
3726;SDS011;1879;45.876;12.300;2023-07-30T00:55:49;13.07;;;9.00;;
3726;SDS011;1879;45.876;12.300;2023-07-30T00:58:16;12.53;;;10.70;;
3726;SDS011;1879;45.876;12.300;2023-07-30T01:00:44;11.30;;;10.20;;
3726;SDS011;1879;45.876;12.300;2023-07-30T01:03:12;10.50;;;9.40;;
3726;SDS011;1879;45.876;12.300;2023-07-30T01:05:40;9.87;;;9.03;;
3726;SDS011;1879;45.876;12.300;2023-07-30T01:08:07;10.90;;;9.20;;
3726;SDS011;1879;45.876;12.300;2023-07-30T01:10:34;11.90;;;9.93;;
3726;SDS011;1879;45.876;12.300;2023-07-30T01:13:04;13.90;;;11.07;;
3726;SDS011;1879;45.876;12.300;2023-07-30T01:15:32;11.63;;;10.30;;
3726;SDS011;1879;45.876;12.300;2023-07-30T01:17:59;11.30;;;10.20;;
3726;SDS011;1879;45.876;12.300;2023-07-30T01:20:29;10.67;;;9.47;;
3726;SDS011;1879;45.876;12.300;2023-07-30T01:22:58;10.90;;;9.87;;
3726;SDS011;1879;45.876;12.300;2023-07-30T01:25:25;10.80;;;9.87;;
3726;SDS011;1879;45.876;12.300;2023-07-30T01:27:56;9.27;;;8.33;;
3726;SDS011;1879;45.876;12.300;2023-07-30T01:30:26;10.80;;;9.80;;
3726;SDS011;1879;45.876;12.300;2023-07-30T01:32:55;10.87;;;9.87;;
3726;SDS011;1879;45.876;12.300;2023-07-30T01:35:24;11.93;;;10.30;;
3726;SDS011;1879;45.876;12.300;2023-07-30T01:37:53;10.90;;;10.00;;
3726;SDS011;1879;45.876;12.300;2023-07-30T01:40:21;10.70;;;9.80;;
3726;SDS011;1879;45.876;12.300;2023-07-30T01:42:49;12.07;;;10.77;;
3726;SDS011;1879;45.876;12.300;2023-07-30T01:45:16;9.50;;;8.60;;
3726;SDS011;1879;45.876;12.300;2023-07-30T01:47:43;9.70;;;8.80;;
3726;SDS011;1879;45.876;12.300;2023-07-30T01:50:10;10.10;;;9.10;;
3726;SDS011;1879;45.876;12.300;2023-07-30T01:52:37;13.50;;;11.20;;
3726;SDS011;1879;45.876;12.300;2023-07-30T01:55:05;9.93;;;9.03;;
3726;SDS011;1879;45.876;12.300;2023-07-30T01:57:34;10.53;;;9.30;;
3726;SDS011;1879;45.876;12.300;2023-07-30T02:00:01;10.30;;;9.33;;
3726;SDS011;1879;45.876;12.300;2023-07-30T02:02:28;12.23;;;8.13;;
3726;SDS011;1879;45.876;12.300;2023-07-30T02:04:55;11.30;;;10.17;;
3726;SDS011;1879;45.876;12.300;2023-07-30T02:07:22;13.67;;;12.47;;
3726;SDS011;1879;45.876;12.300;2023-07-30T02:09:49;12.50;;;11.40;;
3726;SDS011;1879;45.876;12.300;2023-07-30T02:12:16;12.77;;;11.77;;
3726;SDS011;1879;45.876;12.300;2023-07-30T02:14:44;11.40;;;10.50;;
3726;SDS011;1879;45.876;12.300;2023-07-30T02:17:11;12.47;;;11.37;;
3726;SDS011;1879;45.876;12.300;2023-07-30T02:19:38;12.80;;;11.80;;
3726;SDS011;1879;45.876;12.300;2023-07-30T02:22:05;14.00;;;12.70;;
3726;SDS011;1879;45.876;12.300;2023-07-30T02:24:32;13.03;;;11.90;;
3726;SDS011;1879;45.876;12.300;2023-07-30T02:26:59;15.33;;;14.13;;
3726;SDS011;1879;45.876;12.300;2023-07-30T02:29:27;15.30;;;13.90;;
3726;SDS011;1879;45.876;12.300;2023-07-30T02:31:55;12.20;;;11.10;;
3726;SDS011;1879;45.876;12.300;2023-07-30T02:34:24;13.67;;;12.57;;
3726;SDS011;1879;45.876;12.300;2023-07-30T02:36:51;15.37;;;14.00;;
3726;SDS011;1879;45.876;12.300;2023-07-30T02:39:18;13.70;;;12.60;;
3726;SDS011;1879;45.876;12.300;2023-07-30T02:41:45;11.87;;;10.80;;
3726;SDS011;1879;45.876;12.300;2023-07-30T02:44:12;10.20;;;9.40;;
3726;SDS011;1879;45.876;12.300;2023-07-30T02:46:39;9.37;;;8.57;;
3726;SDS011;1879;45.876;12.300;2023-07-30T02:49:07;7.50;;;6.90;;
3726;SDS011;1879;45.876;12.300;2023-07-30T02:51:34;7.57;;;6.67;;
3726;SDS011;1879;45.876;12.300;2023-07-30T02:54:04;5.73;;;5.13;;
3726;SDS011;1879;45.876;12.300;2023-07-30T02:56:32;4.87;;;4.33;;
3726;SDS011;1879;45.876;12.300;2023-07-30T02:58:59;5.27;;;4.53;;
3726;SDS011;1879;45.876;12.300;2023-07-30T03:01:26;4.83;;;3.00;;
3726;SDS011;1879;45.876;12.300;2023-07-30T03:03:53;4.30;;;3.60;;
3726;SDS011;1879;45.876;12.300;2023-07-30T03:06:21;3.20;;;2.60;;
3726;SDS011;1879;45.876;12.300;2023-07-30T03:08:48;2.40;;;2.20;;
3726;SDS011;1879;45.876;12.300;2023-07-30T03:11:15;3.20;;;2.90;;
3726;SDS011;1879;45.876;12.300;2023-07-30T03:13:42;2.83;;;2.27;;
3726;SDS011;1879;45.876;12.300;2023-07-30T03:16:09;2.80;;;2.60;;
3726;SDS011;1879;45.876;12.300;2023-07-30T03:18:36;3.00;;;2.67;;
3726;SDS011;1879;45.876;12.300;2023-07-30T03:21:03;3.10;;;2.63;;
3726;SDS011;1879;45.876;12.300;2023-07-30T03:23:31;3.07;;;2.77;;
3726;SDS011;1879;45.876;12.300;2023-07-30T03:25:58;4.67;;;2.90;;
3726;SDS011;1879;45.876;12.300;2023-07-30T03:28:25;4.20;;;2.50;;
3726;SDS011;1879;45.876;12.300;2023-07-30T03:30:52;2.50;;;2.10;;
3726;SDS011;1879;45.876;12.300;2023-07-30T03:33:19;4.20;;;2.43;;
3726;SDS011;1879;45.876;12.300;2023-07-30T03:35:46;3.20;;;2.77;;
3726;SDS011;1879;45.876;12.300;2023-07-30T03:38:13;2.90;;;2.70;;
3726;SDS011;1879;45.876;12.300;2023-07-30T03:40:42;2.53;;;2.33;;
3726;SDS011;1879;45.876;12.300;2023-07-30T03:43:09;4.40;;;2.60;;
3726;SDS011;1879;45.876;12.300;2023-07-30T03:45:36;3.43;;;3.03;;
3726;SDS011;1879;45.876;12.300;2023-07-30T03:48:03;3.87;;;2.97;;
3726;SDS011;1879;45.876;12.300;2023-07-30T03:50:30;4.50;;;3.03;;
3726;SDS011;1879;45.876;12.300;2023-07-30T03:52:57;2.57;;;2.37;;
3726;SDS011;1879;45.876;12.300;2023-07-30T03:55:24;4.67;;;3.00;;
3726;SDS011;1879;45.876;12.300;2023-07-30T03:57:52;3.67;;;3.37;;
3726;SDS011;1879;45.876;12.300;2023-07-30T04:00:19;3.23;;;2.80;;
3726;SDS011;1879;45.876;12.300;2023-07-30T04:02:46;3.43;;;3.13;;
3726;SDS011;1879;45.876;12.300;2023-07-30T04:05:13;4.20;;;2.83;;
3726;SDS011;1879;45.876;12.300;2023-07-30T04:07:40;3.83;;;3.00;;
3726;SDS011;1879;45.876;12.300;2023-07-30T04:10:07;3.67;;;3.37;;
3726;SDS011;1879;45.876;12.300;2023-07-30T04:12:34;3.47;;;3.00;;
3726;SDS011;1879;45.876;12.300;2023-07-30T04:15:03;3.20;;;2.90;;
3726;SDS011;1879;45.876;12.300;2023-07-30T04:17:30;3.10;;;2.90;;
3726;SDS011;1879;45.876;12.300;2023-07-30T04:19:57;3.00;;;2.80;;
3726;SDS011;1879;45.876;12.300;2023-07-30T04:22:24;3.50;;;3.20;;
3726;SDS011;1879;45.876;12.300;2023-07-30T04:24:51;3.03;;;2.83;;
3726;SDS011;1879;45.876;12.300;2023-07-30T04:27:18;2.80;;;2.60;;
3726;SDS011;1879;45.876;12.300;2023-07-30T04:29:45;3.13;;;2.83;;
3726;SDS011;1879;45.876;12.300;2023-07-30T04:32:14;3.20;;;2.60;;
3726;SDS011;1879;45.876;12.300;2023-07-30T04:34:41;3.50;;;3.07;;
3726;SDS011;1879;45.876;12.300;2023-07-30T04:37:08;4.10;;;2.90;;
3726;SDS011;1879;45.876;12.300;2023-07-30T04:39:35;3.20;;;2.83;;
3726;SDS011;1879;45.876;12.300;2023-07-30T04:42:02;3.10;;;2.80;;
3726;SDS011;1879;45.876;12.300;2023-07-30T04:44:29;3.03;;;2.83;;
3726;SDS011;1879;45.876;12.300;2023-07-30T04:46:56;3.10;;;2.87;;
3726;SDS011;1879;45.876;12.300;2023-07-30T04:49:26;2.87;;;2.57;;
3726;SDS011;1879;45.876;12.300;2023-07-30T04:51:53;2.73;;;2.53;;
3726;SDS011;1879;45.876;12.300;2023-07-30T04:54:20;2.90;;;2.70;;
3726;SDS011;1879;45.876;12.300;2023-07-30T04:56:47;3.57;;;3.13;;
3726;SDS011;1879;45.876;12.300;2023-07-30T04:59:14;3.50;;;2.53;;
3726;SDS011;1879;45.876;12.300;2023-07-30T05:01:40;3.57;;;3.23;;
3726;SDS011;1879;45.876;12.300;2023-07-30T05:04:07;3.93;;;3.50;;
3726;SDS011;1879;45.876;12.300;2023-07-30T05:06:36;3.40;;;2.93;;
3726;SDS011;1879;45.876;12.300;2023-07-30T05:09:03;3.50;;;3.20;;
3726;SDS011;1879;45.876;12.300;2023-07-30T05:11:30;4.10;;;3.50;;
3726;SDS011;1879;45.876;12.300;2023-07-30T05:13:57;3.70;;;3.40;;
3726;SDS011;1879;45.876;12.300;2023-07-30T05:16:24;3.60;;;3.30;;
3726;SDS011;1879;45.876;12.300;2023-07-30T05:18:51;3.80;;;3.50;;
3726;SDS011;1879;45.876;12.300;2023-07-30T05:21:18;4.03;;;3.73;;
3726;SDS011;1879;45.876;12.300;2023-07-30T05:23:46;3.83;;;3.53;;
3726;SDS011;1879;45.876;12.300;2023-07-30T05:26:13;4.10;;;3.80;;
3726;SDS011;1879;45.876;12.300;2023-07-30T05:28:40;4.43;;;3.93;;
3726;SDS011;1879;45.876;12.300;2023-07-30T05:31:07;4.27;;;3.93;;
3726;SDS011;1879;45.876;12.300;2023-07-30T05:33:34;4.17;;;3.87;;
3726;SDS011;1879;45.876;12.300;2023-07-30T05:36:01;4.97;;;4.57;;
3726;SDS011;1879;45.876;12.300;2023-07-30T05:38:28;5.57;;;5.07;;
3726;SDS011;1879;45.876;12.300;2023-07-30T05:40:56;4.40;;;4.00;;
3726;SDS011;1879;45.876;12.300;2023-07-30T05:43:23;5.13;;;3.80;;
3726;SDS011;1879;45.876;12.300;2023-07-30T05:45:50;4.53;;;4.13;;
3726;SDS011;1879;45.876;12.300;2023-07-30T05:48:17;4.53;;;4.17;;
3726;SDS011;1879;45.876;12.300;2023-07-30T05:50:44;4.73;;;4.33;;
3726;SDS011;1879;45.876;12.300;2023-07-30T05:53:11;4.17;;;3.77;;
3726;SDS011;1879;45.876;12.300;2023-07-30T05:55:38;5.60;;;4.00;;
3726;SDS011;1879;45.876;12.300;2023-07-30T05:58:06;5.10;;;4.60;;
3726;SDS011;1879;45.876;12.300;2023-07-30T06:00:33;4.50;;;4.20;;
3726;SDS011;1879;45.876;12.300;2023-07-30T06:03:00;6.23;;;3.60;;
3726;SDS011;1879;45.876;12.300;2023-07-30T06:05:28;4.13;;;3.83;;
3726;SDS011;1879;45.876;12.300;2023-07-30T06:07:55;4.30;;;3.90;;
3726;SDS011;1879;45.876;12.300;2023-07-30T06:10:22;4.40;;;3.90;;
3726;SDS011;1879;45.876;12.300;2023-07-30T06:12:49;4.30;;;3.90;;
3726;SDS011;1879;45.876;12.300;2023-07-30T06:15:17;4.50;;;4.10;;
3726;SDS011;1879;45.876;12.300;2023-07-30T06:17:44;5.37;;;4.20;;
3726;SDS011;1879;45.876;12.300;2023-07-30T06:20:11;4.67;;;4.10;;
3726;SDS011;1879;45.876;12.300;2023-07-30T06:22:38;4.20;;;3.90;;
3726;SDS011;1879;45.876;12.300;2023-07-30T06:25:05;4.73;;;3.60;;
3726;SDS011;1879;45.876;12.300;2023-07-30T06:27:32;3.83;;;3.50;;
3726;SDS011;1879;45.876;12.300;2023-07-30T06:29:59;2.90;;;2.70;;
3726;SDS011;1879;45.876;12.300;2023-07-30T06:32:28;3.30;;;3.10;;
3726;SDS011;1879;45.876;12.300;2023-07-30T06:34:55;3.00;;;2.80;;
3726;SDS011;1879;45.876;12.300;2023-07-30T06:37:22;3.70;;;3.40;;
3726;SDS011;1879;45.876;12.300;2023-07-30T06:39:49;6.00;;;3.70;;
3726;SDS011;1879;45.876;12.300;2023-07-30T06:42:16;3.03;;;2.83;;
3726;SDS011;1879;45.876;12.300;2023-07-30T06:44:42;3.03;;;2.73;;
3726;SDS011;1879;45.876;12.300;2023-07-30T06:47:09;3.73;;;3.43;;
3726;SDS011;1879;45.876;12.300;2023-07-30T06:49:38;3.47;;;2.80;;
3726;SDS011;1879;45.876;12.300;2023-07-30T06:52:05;3.13;;;2.87;;
3726;SDS011;1879;45.876;12.300;2023-07-30T06:54:32;3.30;;;3.00;;
3726;SDS011;1879;45.876;12.300;2023-07-30T06:56:59;2.83;;;2.60;;
3726;SDS011;1879;45.876;12.300;2023-07-30T06:59:26;3.57;;;3.27;;
3726;SDS011;1879;45.876;12.300;2023-07-30T07:01:53;3.70;;;2.80;;
3726;SDS011;1879;45.876;12.300;2023-07-30T07:04:20;4.07;;;2.93;;
3726;SDS011;1879;45.876;12.300;2023-07-30T07:06:48;3.08;;;2.78;;
3726;SDS011;1879;45.876;12.300;2023-07-30T07:09:15;3.40;;;3.10;;
3726;SDS011;1879;45.876;12.300;2023-07-30T07:11:43;3.30;;;3.10;;
3726;SDS011;1879;45.876;12.300;2023-07-30T07:14:10;3.57;;;3.33;;
3726;SDS011;1879;45.876;12.300;2023-07-30T07:16:36;3.47;;;3.07;;
3726;SDS011;1879;45.876;12.300;2023-07-30T07:19:03;3.80;;;3.50;;
3726;SDS011;1879;45.876;12.300;2023-07-30T07:21:31;4.70;;;3.37;;
3726;SDS011;1879;45.876;12.300;2023-07-30T07:23:59;3.50;;;3.13;;
3726;SDS011;1879;45.876;12.300;2023-07-30T07:26:26;3.97;;;3.67;;
3726;SDS011;1879;45.876;12.300;2023-07-30T07:28:55;3.40;;;3.10;;
3726;SDS011;1879;45.876;12.300;2023-07-30T07:31:22;3.23;;;2.80;;
3726;SDS011;1879;45.876;12.300;2023-07-30T07:33:49;4.20;;;3.30;;
3726;SDS011;1879;45.876;12.300;2023-07-30T07:36:16;3.73;;;3.43;;
3726;SDS011;1879;45.876;12.300;2023-07-30T07:38:43;4.50;;;3.40;;
3726;SDS011;1879;45.876;12.300;2023-07-30T07:41:15;3.90;;;3.60;;
3726;SDS011;1879;45.876;12.300;2023-07-30T07:43:42;3.70;;;3.40;;
3726;SDS011;1879;45.876;12.300;2023-07-30T07:46:09;5.60;;;3.30;;
3726;SDS011;1879;45.876;12.300;2023-07-30T07:48:39;2.60;;;2.40;;
3726;SDS011;1879;45.876;12.300;2023-07-30T07:51:07;4.03;;;3.33;;
3726;SDS011;1879;45.876;12.300;2023-07-30T07:53:35;3.87;;;3.57;;
3726;SDS011;1879;45.876;12.300;2023-07-30T07:56:02;3.80;;;3.50;;
3726;SDS011;1879;45.876;12.300;2023-07-30T07:58:31;3.20;;;2.90;;
3726;SDS011;1879;45.876;12.300;2023-07-30T08:00:59;3.77;;;3.47;;
3726;SDS011;1879;45.876;12.300;2023-07-30T08:03:26;3.90;;;3.30;;
3726;SDS011;1879;45.876;12.300;2023-07-30T08:05:53;3.20;;;3.00;;
3726;SDS011;1879;45.876;12.300;2023-07-30T08:08:20;3.07;;;2.87;;
3726;SDS011;1879;45.876;12.300;2023-07-30T08:10:47;2.83;;;2.60;;
3726;SDS011;1879;45.876;12.300;2023-07-30T08:13:14;2.70;;;2.50;;
3726;SDS011;1879;45.876;12.300;2023-07-30T08:15:42;2.40;;;2.20;;
3726;SDS011;1879;45.876;12.300;2023-07-30T08:18:09;2.23;;;2.03;;
3726;SDS011;1879;45.876;12.300;2023-07-30T08:20:36;3.80;;;2.40;;
3726;SDS011;1879;45.876;12.300;2023-07-30T08:23:03;2.40;;;2.20;;
3726;SDS011;1879;45.876;12.300;2023-07-30T08:25:30;4.90;;;2.03;;
3726;SDS011;1879;45.876;12.300;2023-07-30T08:27:57;3.63;;;2.20;;
3726;SDS011;1879;45.876;12.300;2023-07-30T08:30:24;3.13;;;2.40;;
3726;SDS011;1879;45.876;12.300;2023-07-30T08:32:52;6.10;;;2.33;;
3726;SDS011;1879;45.876;12.300;2023-07-30T08:35:19;4.50;;;2.33;;
3726;SDS011;1879;45.876;12.300;2023-07-30T08:37:46;3.70;;;2.77;;
3726;SDS011;1879;45.876;12.300;2023-07-30T08:40:13;3.23;;;2.60;;
3726;SDS011;1879;45.876;12.300;2023-07-30T08:42:41;2.80;;;2.60;;
3726;SDS011;1879;45.876;12.300;2023-07-30T08:45:08;3.07;;;2.50;;
3726;SDS011;1879;45.876;12.300;2023-07-30T08:47:35;2.60;;;2.17;;
3726;SDS011;1879;45.876;12.300;2023-07-30T08:50:05;5.40;;;2.93;;
3726;SDS011;1879;45.876;12.300;2023-07-30T08:52:33;3.60;;;2.87;;
3726;SDS011;1879;45.876;12.300;2023-07-30T08:55:02;2.40;;;2.20;;
3726;SDS011;1879;45.876;12.300;2023-07-30T08:57:30;4.40;;;1.97;;
3726;SDS011;1879;45.876;12.300;2023-07-30T09:00:00;2.40;;;2.20;;
3726;SDS011;1879;45.876;12.300;2023-07-30T09:02:31;2.63;;;2.43;;
3726;SDS011;1879;45.876;12.300;2023-07-30T09:05:01;1.90;;;1.70;;
3726;SDS011;1879;45.876;12.300;2023-07-30T09:07:30;4.10;;;2.10;;
3726;SDS011;1879;45.876;12.300;2023-07-30T09:09:57;1.87;;;1.60;;
3726;SDS011;1879;45.876;12.300;2023-07-30T09:12:28;2.40;;;2.20;;
3726;SDS011;1879;45.876;12.300;2023-07-30T09:14:56;1.83;;;1.73;;
3726;SDS011;1879;45.876;12.300;2023-07-30T09:17:24;4.03;;;1.60;;
3726;SDS011;1879;45.876;12.300;2023-07-30T09:19:51;2.10;;;1.80;;
3726;SDS011;1879;45.876;12.300;2023-07-30T09:22:24;2.33;;;2.13;;
3726;SDS011;1879;45.876;12.300;2023-07-30T09:24:53;2.07;;;1.87;;
3726;SDS011;1879;45.876;12.300;2023-07-30T09:27:21;1.83;;;1.73;;
3726;SDS011;1879;45.876;12.300;2023-07-30T09:29:51;3.70;;;2.30;;
3726;SDS011;1879;45.876;12.300;2023-07-30T09:32:19;2.17;;;1.90;;
3726;SDS011;1879;45.876;12.300;2023-07-30T09:34:46;2.00;;;1.80;;
3726;SDS011;1879;45.876;12.300;2023-07-30T09:37:13;2.00;;;1.90;;
3726;SDS011;1879;45.876;12.300;2023-07-30T09:39:41;2.43;;;2.10;;
3726;SDS011;1879;45.876;12.300;2023-07-30T09:42:09;2.00;;;1.90;;
3726;SDS011;1879;45.876;12.300;2023-07-30T09:44:37;2.17;;;1.97;;
3726;SDS011;1879;45.876;12.300;2023-07-30T09:47:05;2.13;;;1.90;;
3726;SDS011;1879;45.876;12.300;2023-07-30T09:49:35;2.47;;;1.80;;
3726;SDS011;1879;45.876;12.300;2023-07-30T09:52:04;2.23;;;2.00;;
3726;SDS011;1879;45.876;12.300;2023-07-30T09:54:31;1.87;;;1.77;;
3726;SDS011;1879;45.876;12.300;2023-07-30T09:56:58;2.53;;;2.10;;
3726;SDS011;1879;45.876;12.300;2023-07-30T09:59:27;2.27;;;2.07;;
3726;SDS011;1879;45.876;12.300;2023-07-30T10:01:54;2.20;;;1.80;;
3726;SDS011;1879;45.876;12.300;2023-07-30T10:04:23;2.30;;;2.10;;
3726;SDS011;1879;45.876;12.300;2023-07-30T10:06:53;2.27;;;2.07;;
3726;SDS011;1879;45.876;12.300;2023-07-30T10:09:25;1.83;;;1.73;;
3726;SDS011;1879;45.876;12.300;2023-07-30T10:11:56;2.00;;;1.73;;
3726;SDS011;1879;45.876;12.300;2023-07-30T10:14:27;1.90;;;1.70;;
3726;SDS011;1879;45.876;12.300;2023-07-30T10:16:55;1.60;;;1.50;;
3726;SDS011;1879;45.876;12.300;2023-07-30T10:19:26;3.17;;;1.37;;
3726;SDS011;1879;45.876;12.300;2023-07-30T10:21:57;1.63;;;1.47;;
3726;SDS011;1879;45.876;12.300;2023-07-30T10:24:41;1.40;;;1.30;;
3726;SDS011;1879;45.876;12.300;2023-07-30T10:27:23;1.83;;;1.63;;
3726;SDS011;1879;45.876;12.300;2023-07-30T10:30:07;1.40;;;1.30;;
3726;SDS011;1879;45.876;12.300;2023-07-30T10:32:39;2.23;;;1.73;;
3726;SDS011;1879;45.876;12.300;2023-07-30T10:35:07;2.10;;;1.80;;
3726;SDS011;1879;45.876;12.300;2023-07-30T10:37:34;3.10;;;2.03;;
3726;SDS011;1879;45.876;12.300;2023-07-30T10:40:13;2.10;;;1.70;;
3726;SDS011;1879;45.876;12.300;2023-07-30T10:42:43;1.80;;;1.70;;
3726;SDS011;1879;45.876;12.300;2023-07-30T10:45:12;2.27;;;2.00;;
3726;SDS011;1879;45.876;12.300;2023-07-30T10:47:40;2.03;;;1.83;;
3726;SDS011;1879;45.876;12.300;2023-07-30T10:50:08;1.87;;;1.73;;
3726;SDS011;1879;45.876;12.300;2023-07-30T10:52:36;2.43;;;2.03;;
3726;SDS011;1879;45.876;12.300;2023-07-30T10:55:04;2.33;;;2.03;;
3726;SDS011;1879;45.876;12.300;2023-07-30T10:57:31;2.07;;;1.93;;
3726;SDS011;1879;45.876;12.300;2023-07-30T10:59:59;2.07;;;1.80;;
3726;SDS011;1879;45.876;12.300;2023-07-30T11:02:28;2.20;;;1.97;;
3726;SDS011;1879;45.876;12.300;2023-07-30T11:04:55;2.57;;;1.87;;
3726;SDS011;1879;45.876;12.300;2023-07-30T11:07:22;3.00;;;1.90;;
3726;SDS011;1879;45.876;12.300;2023-07-30T11:09:58;2.13;;;1.93;;
3726;SDS011;1879;45.876;12.300;2023-07-30T11:12:26;2.37;;;2.10;;
3726;SDS011;1879;45.876;12.300;2023-07-30T11:14:59;1.60;;;1.50;;
3726;SDS011;1879;45.876;12.300;2023-07-30T11:17:27;2.90;;;2.10;;
3726;SDS011;1879;45.876;12.300;2023-07-30T11:19:55;3.00;;;2.00;;
3726;SDS011;1879;45.876;12.300;2023-07-30T11:22:28;2.30;;;2.10;;
3726;SDS011;1879;45.876;12.300;2023-07-30T11:24:56;2.03;;;1.83;;
3726;SDS011;1879;45.876;12.300;2023-07-30T11:27:26;2.10;;;2.00;;
3726;SDS011;1879;45.876;12.300;2023-07-30T11:29:53;2.33;;;1.97;;
3726;SDS011;1879;45.876;12.300;2023-07-30T11:32:21;3.60;;;2.53;;
3726;SDS011;1879;45.876;12.300;2023-07-30T11:34:51;2.23;;;2.10;;
3726;SDS011;1879;45.876;12.300;2023-07-30T11:37:19;2.40;;;2.20;;
3726;SDS011;1879;45.876;12.300;2023-07-30T11:39:46;2.40;;;2.20;;
3726;SDS011;1879;45.876;12.300;2023-07-30T11:42:14;2.40;;;2.20;;
3726;SDS011;1879;45.876;12.300;2023-07-30T11:44:41;1.93;;;1.77;;
3726;SDS011;1879;45.876;12.300;2023-07-30T11:47:08;2.30;;;2.13;;
3726;SDS011;1879;45.876;12.300;2023-07-30T11:49:36;5.30;;;2.63;;
3726;SDS011;1879;45.876;12.300;2023-07-30T11:52:07;4.60;;;2.93;;
3726;SDS011;1879;45.876;12.300;2023-07-30T11:54:35;2.10;;;2.00;;
3726;SDS011;1879;45.876;12.300;2023-07-30T11:57:02;4.83;;;2.13;;
3726;SDS011;1879;45.876;12.300;2023-07-30T11:59:30;1.80;;;1.67;;
3726;SDS011;1879;45.876;12.300;2023-07-30T12:01:57;2.00;;;1.37;;
3726;SDS011;1879;45.876;12.300;2023-07-30T12:04:25;2.63;;;1.77;;
3726;SDS011;1879;45.876;12.300;2023-07-30T12:06:52;2.60;;;2.40;;
3726;SDS011;1879;45.876;12.300;2023-07-30T12:09:21;1.97;;;1.87;;
3726;SDS011;1879;45.876;12.300;2023-07-30T12:11:51;7.30;;;2.70;;
3726;SDS011;1879;45.876;12.300;2023-07-30T12:14:18;2.37;;;2.17;;
3726;SDS011;1879;45.876;12.300;2023-07-30T12:16:46;2.67;;;2.47;;
3726;SDS011;1879;45.876;12.300;2023-07-30T12:19:13;2.50;;;2.30;;
3726;SDS011;1879;45.876;12.300;2023-07-30T12:21:40;2.10;;;1.90;;
3726;SDS011;1879;45.876;12.300;2023-07-30T12:24:07;3.20;;;1.70;;
3726;SDS011;1879;45.876;12.300;2023-07-30T12:26:36;3.90;;;2.13;;
3726;SDS011;1879;45.876;12.300;2023-07-30T12:29:03;3.40;;;2.10;;
3726;SDS011;1879;45.876;12.300;2023-07-30T12:31:30;2.10;;;1.63;;
3726;SDS011;1879;45.876;12.300;2023-07-30T12:33:58;1.77;;;1.67;;
3726;SDS011;1879;45.876;12.300;2023-07-30T12:36:25;1.90;;;1.80;;
3726;SDS011;1879;45.876;12.300;2023-07-30T12:38:52;1.80;;;1.70;;
3726;SDS011;1879;45.876;12.300;2023-07-30T12:41:19;2.43;;;1.90;;
3726;SDS011;1879;45.876;12.300;2023-07-30T12:43:52;2.13;;;1.80;;
3726;SDS011;1879;45.876;12.300;2023-07-30T12:46:21;2.40;;;1.60;;
3726;SDS011;1879;45.876;12.300;2023-07-30T12:48:48;1.43;;;1.20;;
3726;SDS011;1879;45.876;12.300;2023-07-30T12:51:16;1.97;;;1.70;;
3726;SDS011;1879;45.876;12.300;2023-07-30T12:53:43;2.00;;;1.90;;
3726;SDS011;1879;45.876;12.300;2023-07-30T12:56:11;1.73;;;1.63;;
3726;SDS011;1879;45.876;12.300;2023-07-30T12:58:40;2.00;;;1.80;;
3726;SDS011;1879;45.876;12.300;2023-07-30T13:01:08;2.47;;;1.60;;
3726;SDS011;1879;45.876;12.300;2023-07-30T13:03:35;1.80;;;1.70;;
3726;SDS011;1879;45.876;12.300;2023-07-30T13:06:04;2.33;;;1.90;;
3726;SDS011;1879;45.876;12.300;2023-07-30T13:08:31;2.43;;;1.77;;
3726;SDS011;1879;45.876;12.300;2023-07-30T13:10:58;2.27;;;1.73;;
3726;SDS011;1879;45.876;12.300;2023-07-30T13:13:25;2.50;;;2.00;;
3726;SDS011;1879;45.876;12.300;2023-07-30T13:15:53;1.83;;;1.63;;
3726;SDS011;1879;45.876;12.300;2023-07-30T13:18:24;1.70;;;1.60;;
3726;SDS011;1879;45.876;12.300;2023-07-30T13:20:51;1.90;;;1.80;;
3726;SDS011;1879;45.876;12.300;2023-07-30T13:23:18;1.97;;;1.20;;
3726;SDS011;1879;45.876;12.300;2023-07-30T13:25:45;2.80;;;1.80;;
3726;SDS011;1879;45.876;12.300;2023-07-30T13:28:12;1.83;;;1.73;;
3726;SDS011;1879;45.876;12.300;2023-07-30T13:30:39;4.63;;;1.87;;
3726;SDS011;1879;45.876;12.300;2023-07-30T13:33:06;1.80;;;1.70;;
3726;SDS011;1879;45.876;12.300;2023-07-30T13:35:34;1.80;;;1.70;;
3726;SDS011;1879;45.876;12.300;2023-07-30T13:38:01;2.17;;;1.53;;
3726;SDS011;1879;45.876;12.300;2023-07-30T13:40:28;1.70;;;1.60;;
3726;SDS011;1879;45.876;12.300;2023-07-30T13:42:55;1.80;;;1.70;;
3726;SDS011;1879;45.876;12.300;2023-07-30T13:45:22;2.20;;;2.00;;
3726;SDS011;1879;45.876;12.300;2023-07-30T13:47:49;1.73;;;1.63;;
3726;SDS011;1879;45.876;12.300;2023-07-30T13:50:16;1.53;;;1.43;;
3726;SDS011;1879;45.876;12.300;2023-07-30T13:52:45;3.63;;;1.77;;
3726;SDS011;1879;45.876;12.300;2023-07-30T13:55:12;2.40;;;1.80;;
3726;SDS011;1879;45.876;12.300;2023-07-30T13:57:39;1.63;;;1.53;;
3726;SDS011;1879;45.876;12.300;2023-07-30T14:00:07;1.60;;;1.50;;
3726;SDS011;1879;45.876;12.300;2023-07-30T14:02:34;1.80;;;1.70;;
3726;SDS011;1879;45.876;12.300;2023-07-30T14:05:01;2.10;;;1.90;;
3726;SDS011;1879;45.876;12.300;2023-07-30T14:07:28;1.90;;;1.80;;
3726;SDS011;1879;45.876;12.300;2023-07-30T14:09:57;2.30;;;1.87;;
3726;SDS011;1879;45.876;12.300;2023-07-30T14:12:24;1.77;;;1.60;;
3726;SDS011;1879;45.876;12.300;2023-07-30T14:14:51;1.73;;;1.63;;
3726;SDS011;1879;45.876;12.300;2023-07-30T14:17:18;1.90;;;1.80;;
3726;SDS011;1879;45.876;12.300;2023-07-30T14:19:44;2.00;;;1.67;;
3726;SDS011;1879;45.876;12.300;2023-07-30T14:22:11;2.77;;;1.90;;
3726;SDS011;1879;45.876;12.300;2023-07-30T14:24:38;2.43;;;1.90;;
3726;SDS011;1879;45.876;12.300;2023-07-30T14:27:09;1.97;;;1.80;;
3726;SDS011;1879;45.876;12.300;2023-07-30T14:29:36;1.70;;;1.60;;
3726;SDS011;1879;45.876;12.300;2023-07-30T14:32:04;2.23;;;2.00;;
3726;SDS011;1879;45.876;12.300;2023-07-30T14:34:31;2.30;;;2.10;;
3726;SDS011;1879;45.876;12.300;2023-07-30T14:36:59;2.20;;;1.90;;
3726;SDS011;1879;45.876;12.300;2023-07-30T14:39:27;1.83;;;1.73;;
3726;SDS011;1879;45.876;12.300;2023-07-30T14:41:55;1.90;;;1.70;;
3726;SDS011;1879;45.876;12.300;2023-07-30T14:44:23;2.20;;;2.00;;
3726;SDS011;1879;45.876;12.300;2023-07-30T14:46:52;1.80;;;1.70;;
3726;SDS011;1879;45.876;12.300;2023-07-30T14:49:22;2.10;;;1.90;;
3726;SDS011;1879;45.876;12.300;2023-07-30T14:51:49;1.90;;;1.80;;
3726;SDS011;1879;45.876;12.300;2023-07-30T14:54:16;2.07;;;1.87;;
3726;SDS011;1879;45.876;12.300;2023-07-30T14:56:43;1.60;;;1.50;;
3726;SDS011;1879;45.876;12.300;2023-07-30T14:59:10;1.90;;;1.80;;
3726;SDS011;1879;45.876;12.300;2023-07-30T15:01:39;2.80;;;1.97;;